Time;durP1;ratioP1;P1;durP2;ratioP2;P2;SDS_P1;SDS_P2;PMS_P1;PMS_P2;Temp;Humidity;BMP_temperature;BMP_pressure;BME280_temperature;BME280_humidity;BME280_pressure;Samples;Min_cycle;Max_cycle;Signal;HPM_P1;HPM_P2
2021/03/20 00:02:05;;;;;;;10.57;8.27;;;0.80;91.30;;;;;;5051355;28;20496;-83
2021/03/20 00:04:32;;;;;;;11.30;7.72;;;0.60;91.10;;;;;;5066760;28;20551;-83
2021/03/20 00:06:59;;;;;;;10.43;6.82;;;0.60;90.60;;;;;;5070899;28;20203;-83
2021/03/20 00:09:27;;;;;;;11.10;8.07;;;0.70;91.00;;;;;;5070645;28;20253;-82
2021/03/20 00:11:57;;;;;;;10.13;8.65;;;0.60;90.90;;;;;;5070569;28;20195;-83
2021/03/20 00:14:24;;;;;;;10.60;7.90;;;0.40;91.00;;;;;;5070226;28;20703;-83
2021/03/20 00:16:52;;;;;;;9.52;8.60;;;0.50;91.60;;;;;;5070194;28;20261;-83
2021/03/20 00:19:19;;;;;;;12.75;8.93;;;0.50;91.40;;;;;;5070246;28;20614;-83
2021/03/20 00:21:46;;;;;;;9.68;7.40;;;0.50;91.30;;;;;;5070803;28;20241;-82
2021/03/20 00:24:13;;;;;;;9.68;7.25;;;0.60;91.40;;;;;;5066166;28;20272;-83
2021/03/20 00:26:39;;;;;;;10.20;8.52;;;0.60;91.30;;;;;;5070541;28;20680;-82
2021/03/20 00:29:07;;;;;;;7.93;7.13;;;0.60;90.80;;;;;;5070523;28;20199;-82
2021/03/20 00:31:33;;;;;;;11.18;7.80;;;0.60;90.50;;;;;;5070447;28;20665;-83
2021/03/20 00:34:00;;;;;;;9.18;7.68;;;0.60;90.50;;;;;;5069622;28;20203;-82
2021/03/20 00:36:27;;;;;;;7.00;6.30;;;0.60;90.70;;;;;;5070523;28;20199;-83
2021/03/20 00:38:54;;;;;;;10.00;7.72;;;0.60;90.50;;;;;;5069574;28;20204;-83
2021/03/20 00:41:20;;;;;;;11.02;8.32;;;0.60;90.30;;;;;;5070401;28;20227;-83
2021/03/20 00:43:46;;;;;;;10.43;8.27;;;0.60;90.70;;;;;;5069111;28;20656;-83
2021/03/20 00:46:13;;;;;;;7.80;7.00;;;0.70;90.50;;;;;;5069953;28;20248;-83
2021/03/20 00:48:41;;;;;;;10.02;6.95;;;0.50;90.30;;;;;;5069792;28;20253;-83
2021/03/20 00:51:08;;;;;;;10.48;7.97;;;0.50;90.70;;;;;;5070201;28;20591;-83
2021/03/20 00:53:36;;;;;;;8.10;6.80;;;0.50;91.30;;;;;;5067750;28;20207;-83
2021/03/20 00:56:03;;;;;;;9.95;7.60;;;0.60;90.80;;;;;;5070500;28;20554;-83
2021/03/20 00:58:33;;;;;;;9.63;7.60;;;0.50;90.50;;;;;;5069559;28;20233;-83
2021/03/20 01:01:03;;;;;;;8.60;6.82;;;0.40;91.00;;;;;;5069627;28;20684;-83
2021/03/20 01:03:32;;;;;;;9.02;7.10;;;0.30;91.20;;;;;;5069317;28;20725;-83
2021/03/20 01:06:00;;;;;;;7.95;6.93;;;0.10;91.00;;;;;;5069271;28;20223;-83
2021/03/20 01:08:27;;;;;;;8.73;7.25;;;0.20;91.40;;;;;;5069522;28;20199;-83
2021/03/20 01:10:55;;;;;;;11.93;8.48;;;0.40;91.50;;;;;;5070314;28;20196;-83
2021/03/20 01:13:22;;;;;;;12.77;8.45;;;0.50;91.10;;;;;;5069194;28;20506;-83
2021/03/20 01:15:50;;;;;;;10.02;7.93;;;0.60;91.10;;;;;;5059854;28;20291;-82
2021/03/20 01:18:17;;;;;;;10.63;7.85;;;0.70;90.80;;;;;;5058940;28;20215;-82
2021/03/20 01:20:44;;;;;;;10.38;7.93;;;0.70;90.90;;;;;;5069284;28;20580;-83
2021/03/20 01:23:11;;;;;;;9.85;7.70;;;0.80;91.10;;;;;;5068854;28;20201;-83
2021/03/20 01:25:38;;;;;;;8.38;7.20;;;0.80;91.10;;;;;;5069999;28;20195;-83
2021/03/20 01:28:06;;;;;;;8.85;7.55;;;0.80;91.10;;;;;;5069706;28;20226;-83
2021/03/20 01:30:35;;;;;;;9.73;6.80;;;0.90;91.40;;;;;;5069315;28;20668;-83
2021/03/20 01:33:02;;;;;;;8.93;7.25;;;0.90;91.40;;;;;;5068763;28;20199;-83
2021/03/20 01:35:29;;;;;;;8.15;7.30;;;1.00;91.30;;;;;;5069552;28;20252;-83
2021/03/20 01:37:56;;;;;;;11.52;7.30;;;1.00;91.20;;;;;;5069627;28;20244;-83
2021/03/20 01:40:27;;;;;;;9.10;7.65;;;1.00;91.20;;;;;;5069273;28;20716;-83
2021/03/20 01:42:53;;;;;;;8.60;7.20;;;1.00;91.30;;;;;;5068780;28;20195;-83
2021/03/20 01:45:24;;;;;;;9.55;7.88;;;1.10;91.40;;;;;;5069578;28;20204;-83
2021/03/20 01:47:55;;;;;;;10.68;7.68;;;1.20;91.20;;;;;;5069445;28;20200;-83
2021/03/20 01:50:27;;;;;;;8.30;7.40;;;1.20;90.90;;;;;;5050330;28;20542;-83
2021/03/20 01:52:58;;;;;;;12.77;8.63;;;1.20;90.80;;;;;;5056682;28;20234;-82
2021/03/20 01:55:25;;;;;;;9.63;7.95;;;1.30;90.80;;;;;;5070810;28;20203;-83
2021/03/20 01:57:55;;;;;;;9.05;6.95;;;1.30;90.70;;;;;;5074245;28;20203;-83
2021/03/20 02:00:27;;;;;;;8.80;7.28;;;1.40;90.80;;;;;;5073622;28;20219;-83
2021/03/20 02:02:54;;;;;;;8.93;6.75;;;1.40;90.70;;;;;;5072930;28;20199;-83
2021/03/20 02:05:23;;;;;;;9.90;7.90;;;1.50;90.50;;;;;;5074033;28;20195;-83
2021/03/20 02:07:51;;;;;;;8.32;7.47;;;1.30;90.00;;;;;;5073785;28;20241;-83
2021/03/20 02:10:19;;;;;;;8.07;6.63;;;1.40;90.20;;;;;;5073531;28;20339;-82
2021/03/20 02:12:50;;;;;;;9.15;6.85;;;1.30;90.00;;;;;;5072281;28;20199;-82
2021/03/20 02:15:24;;;;;;;10.73;8.43;;;1.30;90.30;;;;;;5067745;28;20330;-82
2021/03/20 02:17:58;;;;;;;10.45;7.80;;;1.30;90.90;;;;;;5056800;28;20199;-83
2021/03/20 02:20:37;;;;;;;9.70;6.90;;;1.50;90.70;;;;;;5073063;28;20259;-83
2021/03/20 02:23:44;;;;;;;8.27;7.15;;;1.60;90.50;;;;;;5072170;28;20244;-82
2021/03/20 02:26:43;;;;;;;9.52;7.72;;;1.60;90.20;;;;;;5073507;28;20207;-83
2021/03/20 02:29:52;;;;;;;9.45;7.20;;;1.60;90.20;;;;;;5067097;28;20215;-82
2021/03/20 02:32:41;;;;;;;9.88;7.20;;;1.20;90.20;;;;;;5072827;28;20203;-83
2021/03/20 02:35:19;;;;;;;9.13;7.75;;;1.20;90.50;;;;;;5072849;28;20196;-83
2021/03/20 02:37:54;;;;;;;7.88;7.07;;;1.30;90.70;;;;;;5072450;28;20288;-83
2021/03/20 02:40:29;;;;;;;11.23;7.72;;;1.40;90.70;;;;;;5072833;28;20871;-83
2021/03/20 02:43:03;;;;;;;9.20;7.32;;;1.50;90.70;;;;;;5072656;28;20286;-82
2021/03/20 02:45:38;;;;;;;8.48;7.63;;;1.60;90.30;;;;;;5073491;28;20670;-83
2021/03/20 02:48:14;;;;;;;9.65;7.93;;;1.70;90.40;;;;;;5067744;28;20256;-82
2021/03/20 02:50:46;;;;;;;9.73;7.63;;;1.70;90.20;;;;;;5066989;28;20244;-83
2021/03/20 02:53:21;;;;;;;11.90;8.65;;;1.60;90.00;;;;;;5072368;28;20191;-82
2021/03/20 02:55:53;;;;;;;9.38;7.80;;;1.70;90.30;;;;;;5071749;28;20195;-83
2021/03/20 02:58:27;;;;;;;18.35;8.48;;;1.50;90.20;;;;;;5073289;28;20316;-83
2021/03/20 03:00:58;;;;;;;11.52;7.95;;;1.60;90.50;;;;;;5072404;28;20219;-83
2021/03/20 03:03:29;;;;;;;9.65;8.25;;;1.60;90.30;;;;;;5071742;28;20218;-83
2021/03/20 03:06:01;;;;;;;9.60;7.82;;;1.70;90.20;;;;;;5069302;28;20191;-83
2021/03/20 03:08:33;;;;;;;9.07;8.05;;;1.80;90.30;;;;;;5072612;28;20681;-83
2021/03/20 03:11:05;;;;;;;11.00;9.65;;;1.70;90.20;;;;;;5071613;28;20656;-83
2021/03/20 03:13:40;;;;;;;11.15;9.27;;;1.80;90.40;;;;;;5071832;28;20203;-83
2021/03/20 03:16:15;;;;;;;9.75;8.65;;;1.80;90.20;;;;;;5068058;28;20830;-82
2021/03/20 03:18:46;;;;;;;8.55;7.65;;;1.80;90.30;;;;;;5071892;28;20221;-83
2021/03/20 03:21:14;;;;;;;9.63;8.48;;;1.70;90.30;;;;;;5071571;28;20284;-83
2021/03/20 03:23:42;;;;;;;11.15;8.75;;;1.60;90.40;;;;;;5070865;28;20750;-83
2021/03/20 03:26:14;;;;;;;11.52;7.75;;;1.50;90.90;;;;;;5072151;28;20199;-83
2021/03/20 03:28:45;;;;;;;11.07;8.15;;;1.70;90.90;;;;;;5071876;28;20211;-83
2021/03/20 03:31:21;;;;;;;12.50;10.23;;;1.80;90.70;;;;;;5071413;28;20237;-82
2021/03/20 03:33:55;;;;;;;13.55;8.68;;;1.90;90.50;;;;;;5071197;28;20202;-83
2021/03/20 03:36:22;;;;;;;10.10;8.52;;;2.00;90.40;;;;;;5071303;28;20203;-83
2021/03/20 03:38:54;;;;;;;9.88;8.35;;;1.80;90.40;;;;;;5071517;28;20203;-83
2021/03/20 03:41:25;;;;;;;10.45;7.80;;;1.70;90.50;;;;;;5070901;28;20226;-83
2021/03/20 03:43:53;;;;;;;11.00;9.48;;;1.70;90.80;;;;;;5070605;28;20191;-83
2021/03/20 03:46:22;;;;;;;8.88;7.95;;;1.80;90.90;;;;;;5070977;28;20828;-83
2021/03/20 03:48:53;;;;;;;11.93;8.98;;;1.90;90.70;;;;;;5071025;28;20207;-83
2021/03/20 03:51:19;;;;;;;13.85;9.60;;;2.00;90.60;;;;;;5066853;28;20681;-83
2021/03/20 03:53:46;;;;;;;10.35;8.30;;;1.90;90.60;;;;;;5063378;28;20571;-83
2021/03/20 03:56:35;;;;;;;12.13;9.48;;;2.00;90.80;;;;;;5071878;28;20670;-83
2021/03/20 03:59:13;;;;;;;11.63;9.00;;;1.90;90.80;;;;;;5071140;28;20564;-83
2021/03/20 04:01:47;;;;;;;10.95;9.35;;;2.00;90.80;;;;;;5071720;28;20227;-83
2021/03/20 04:04:29;;;;;;;11.90;8.55;;;1.90;90.80;;;;;;5070314;28;20210;-83
2021/03/20 04:07:10;;;;;;;11.40;9.65;;;1.70;90.80;;;;;;5071808;28;20199;-83
2021/03/20 04:09:47;;;;;;;9.57;8.60;;;1.70;91.20;;;;;;5070814;28;20196;-83
2021/03/20 04:12:21;;;;;;;10.88;8.70;;;1.80;91.30;;;;;;5071133;28;20716;-83
2021/03/20 04:14:55;;;;;;;10.43;8.70;;;1.90;91.10;;;;;;5070505;28;20190;-82
2021/03/20 04:17:27;;;;;;;10.88;8.27;;;1.90;91.00;;;;;;5067778;28;20248;-83
2021/03/20 04:20:06;;;;;;;10.90;8.43;;;1.90;90.70;;;;;;5068906;28;20222;-83
2021/03/20 04:22:41;;;;;;;11.05;8.43;;;2.00;90.60;;;;;;5070282;28;20219;-82
2021/03/20 04:25:17;;;;;;;9.85;8.63;;;1.90;90.70;;;;;;5071243;28;20195;-83
2021/03/20 04:27:49;;;;;;;10.07;8.73;;;1.90;90.90;;;;;;5070484;28;20207;-83
2021/03/20 04:30:20;;;;;;;8.50;7.68;;;1.80;90.80;;;;;;5070607;28;20742;-83
2021/03/20 04:32:52;;;;;;;11.25;8.23;;;1.80;90.70;;;;;;5070975;28;20253;-83
2021/03/20 04:35:27;;;;;;;11.45;8.60;;;1.80;90.80;;;;;;5070678;28;20238;-83
2021/03/20 04:37:55;;;;;;;11.32;8.63;;;1.70;90.60;;;;;;5070796;28;20191;-83
2021/03/20 04:40:30;;;;;;;8.45;7.57;;;1.60;90.70;;;;;;5071370;28;20210;-83
2021/03/20 04:42:59;;;;;;;12.15;9.90;;;1.50;90.80;;;;;;5071436;28;20198;-83
2021/03/20 04:45:31;;;;;;;9.52;8.52;;;1.40;90.70;;;;;;5070780;28;20234;-83
2021/03/20 04:48:03;;;;;;;9.57;7.53;;;1.40;90.40;;;;;;5071589;28;20253;-83
2021/03/20 04:50:32;;;;;;;8.68;7.68;;;1.50;90.60;;;;;;5070195;28;20206;-83
2021/03/20 04:53:00;;;;;;;11.05;8.85;;;1.50;90.70;;;;;;5069837;28;20199;-83
2021/03/20 04:55:28;;;;;;;10.65;8.63;;;1.40;90.80;;;;;;5070140;28;20551;-83
2021/03/20 04:58:02;;;;;;;9.93;7.78;;;1.40;90.90;;;;;;5070408;28;20199;-83
2021/03/20 05:00:33;;;;;;;11.30;7.93;;;1.50;91.00;;;;;;5069444;28;20683;-83
2021/03/20 05:03:09;;;;;;;10.00;8.55;;;1.50;90.40;;;;;;5070110;28;20282;-83
2021/03/20 05:05:42;;;;;;;10.05;8.40;;;1.10;90.40;;;;;;5069918;28;20194;-82
2021/03/20 05:08:13;;;;;;;11.70;9.20;;;1.20;91.10;;;;;;5069794;28;20408;-83
2021/03/20 05:10:46;;;;;;;10.25;9.20;;;1.30;91.30;;;;;;5069929;28;20252;-83
2021/03/20 05:13:26;;;;;;;9.18;8.27;;;1.10;91.40;;;;;;5069562;28;20203;-83
2021/03/20 05:15:59;;;;;;;10.63;7.93;;;1.30;91.50;;;;;;5059599;28;20748;-83
2021/03/20 05:18:26;;;;;;;11.23;8.60;;;1.40;91.30;;;;;;5060416;28;20214;-83
2021/03/20 05:20:53;;;;;;;8.90;8.00;;;1.30;90.60;;;;;;5069843;28;20787;-83
2021/03/20 05:23:20;;;;;;;9.13;8.23;;;1.40;90.10;;;;;;5069086;28;20199;-83
2021/03/20 05:25:46;;;;;;;11.07;8.18;;;1.20;90.10;;;;;;5070389;28;20207;-83
2021/03/20 05:28:13;;;;;;;10.38;8.02;;;1.20;90.30;;;;;;5070422;28;20558;-83
2021/03/20 05:30:39;;;;;;;10.73;8.68;;;1.00;91.00;;;;;;5073339;28;20211;-83
2021/03/20 05:33:06;;;;;;;10.63;9.00;;;0.80;91.30;;;;;;5074851;28;20563;-83
2021/03/20 05:35:32;;;;;;;11.93;9.75;;;0.80;91.60;;;;;;5075949;28;20199;-83
2021/03/20 05:37:59;;;;;;;12.15;9.20;;;0.80;91.70;;;;;;5075575;28;20202;-83
2021/03/20 05:40:29;;;;;;;10.25;8.68;;;1.10;91.90;;;;;;5075808;28;20555;-83
2021/03/20 05:43:20;;;;;;;15.40;9.27;;;1.00;91.50;;;;;;5076213;28;20290;-83
2021/03/20 05:45:56;;;;;;;12.35;8.80;;;1.10;91.90;;;;;;5076160;28;20294;-83
2021/03/20 05:48:28;;;;;;;13.52;10.10;;;1.30;91.90;;;;;;5075402;28;20535;-82
2021/03/20 05:51:22;;;;;;;11.80;8.50;;;1.40;91.80;;;;;;5074946;28;20551;-82
2021/03/20 05:54:10;;;;;;;13.68;11.10;;;1.00;91.30;;;;;;5068676;28;20215;-82
2021/03/20 05:56:43;;;;;;;12.88;9.63;;;1.00;92.00;;;;;;5056618;28;20803;-82
2021/03/20 05:59:23;;;;;;;10.80;8.55;;;1.00;91.90;;;;;;5070403;28;20230;-82
2021/03/20 06:02:05;;;;;;;12.18;8.63;;;0.50;92.00;;;;;;5075259;28;20211;-82
2021/03/20 06:04:35;;;;;;;9.13;8.23;;;0.40;92.70;;;;;;5074359;28;20203;-82
2021/03/20 06:07:45;;;;;;;10.77;9.32;;;0.40;93.20;;;;;;5075034;28;20203;-82
2021/03/20 06:10:30;;;;;;;9.85;8.85;;;0.30;93.50;;;;;;5074097;28;20199;-82
2021/03/20 06:13:08;;;;;;;13.35;8.35;;;0.40;93.90;;;;;;5074104;28;20198;-82
2021/03/20 06:15:50;;;;;;;11.75;9.35;;;0.40;93.80;;;;;;5069284;28;20210;-82
2021/03/20 06:18:47;;;;;;;10.50;8.30;;;0.80;94.10;;;;;;5073361;28;20207;-82
2021/03/20 06:21:20;;;;;;;9.10;8.20;;;0.90;93.60;;;;;;5073152;28;20547;-82
2021/03/20 06:24:21;;;;;;;9.38;8.00;;;1.10;93.30;;;;;;5072733;28;20668;-83
2021/03/20 06:26:50;;;;;;;9.43;8.38;;;1.40;93.00;;;;;;5073256;28;20195;-82
2021/03/20 06:29:22;;;;;;;13.18;9.35;;;1.60;92.20;;;;;;5072453;28;20207;-83
2021/03/20 06:31:50;;;;;;;8.90;7.60;;;1.80;91.70;;;;;;5072921;28;20199;-82
2021/03/20 06:34:21;;;;;;;9.52;8.20;;;1.80;90.80;;;;;;5061598;28;20256;-83
2021/03/20 06:36:51;;;;;;;8.40;6.90;;;2.00;90.60;;;;;;5072656;28;20660;-83
2021/03/20 06:39:26;;;;;;;8.27;6.90;;;1.80;90.00;;;;;;5073854;28;20198;-82
2021/03/20 06:41:59;;;;;;;7.97;6.82;;;1.90;89.00;;;;;;5073299;28;20714;-82
2021/03/20 06:44:33;;;;;;;9.18;8.07;;;1.90;88.00;;;;;;5064538;28;20195;-83
2021/03/20 06:47:00;;;;;;;7.95;5.80;;;1.80;87.20;;;;;;5074949;28;20744;-82
2021/03/20 06:49:31;;;;;;;8.98;6.95;;;1.70;88.00;;;;;;5072670;28;20199;-83
2021/03/20 06:52:00;;;;;;;8.15;6.40;;;1.80;88.20;;;;;;5063023;28;20543;-82
2021/03/20 06:54:28;;;;;;;6.63;6.03;;;1.80;87.80;;;;;;5068742;28;20199;-82
2021/03/20 06:56:55;;;;;;;5.85;5.25;;;1.70;86.50;;;;;;5073045;28;20684;-82
2021/03/20 06:59:23;;;;;;;5.72;5.10;;;1.60;86.20;;;;;;5072243;28;20226;-82
2021/03/20 07:01:59;;;;;;;6.55;5.55;;;1.50;86.40;;;;;;5072475;28;20261;-82
2021/03/20 07:05:13;;;;;;;6.10;5.50;;;1.70;86.30;;;;;;5057662;28;20199;-82
2021/03/20 07:08:09;;;;;;;6.18;5.50;;;1.70;84.40;;;;;;5044709;28;20219;-82
2021/03/20 07:10:39;;;;;;;5.97;5.10;;;1.90;85.10;;;;;;5072597;28;20236;-82
2021/03/20 07:13:18;;;;;;;7.13;5.45;;;2.00;84.70;;;;;;5072089;28;20200;-82
2021/03/20 07:15:48;;;;;;;6.35;4.53;;;2.00;84.50;;;;;;5071796;28;20253;-82
2021/03/20 07:18:37;;;;;;;5.88;5.15;;;1.70;82.10;;;;;;5072038;28;20207;-82
2021/03/20 07:21:24;;;;;;;6.05;4.30;;;1.50;82.80;;;;;;5072543;28;20628;-82
2021/03/20 07:23:55;;;;;;;7.82;4.60;;;1.30;83.20;;;;;;5071403;28;20265;-82
2021/03/20 07:26:22;;;;;;;4.70;4.20;;;1.30;83.50;;;;;;5072607;28;20730;-82
2021/03/20 07:28:52;;;;;;;5.40;4.90;;;1.50;83.60;;;;;;5072732;28;20222;-82
2021/03/20 07:31:20;;;;;;;6.15;5.18;;;1.80;83.80;;;;;;5073095;28;20203;-82
2021/03/20 07:33:48;;;;;;;4.32;3.92;;;2.10;83.20;;;;;;5072101;28;20636;-83
2021/03/20 07:36:35;;;;;;;5.10;4.70;;;2.30;80.90;;;;;;5072686;28;20196;-82
2021/03/20 07:39:19;;;;;;;5.50;4.90;;;2.40;79.30;;;;;;5068448;28;20671;-83
2021/03/20 07:41:54;;;;;;;5.47;4.50;;;2.60;80.20;;;;;;5072490;28;20618;-83
2021/03/20 07:44:23;;;;;;;5.20;4.70;;;2.50;79.70;;;;;;5050602;28;20261;-83
2021/03/20 07:46:50;;;;;;;5.30;4.80;;;2.50;78.80;;;;;;5071619;28;20203;-83
2021/03/20 07:49:29;;;;;;;6.88;4.80;;;2.60;77.70;;;;;;5071688;28;20207;-84
2021/03/20 07:51:58;;;;;;;5.35;4.82;;;2.70;77.60;;;;;;5063939;28;20195;-84
2021/03/20 07:54:29;;;;;;;6.85;4.80;;;2.80;77.50;;;;;;5070713;28;20214;-83
2021/03/20 07:57:08;;;;;;;4.30;3.90;;;2.70;77.10;;;;;;5071389;28;20207;-83
2021/03/20 07:59:43;;;;;;;6.18;4.22;;;2.80;76.90;;;;;;5059440;28;20191;-83
2021/03/20 08:02:26;;;;;;;5.35;4.82;;;2.80;76.00;;;;;;5071677;28;20257;-84
2021/03/20 08:04:59;;;;;;;5.63;4.35;;;2.90;74.70;;;;;;5053320;28;20700;-83
2021/03/20 08:07:44;;;;;;;6.50;5.57;;;2.90;75.80;;;;;;5057572;28;20218;-83
2021/03/20 08:10:26;;;;;;;4.90;4.50;;;2.90;74.50;;;;;;5070355;28;20199;-83
2021/03/20 08:13:03;;;;;;;7.15;5.05;;;2.90;72.40;;;;;;5069833;28;20233;-83
2021/03/20 08:15:34;;;;;;;4.80;4.30;;;2.80;71.90;;;;;;5063292;28;20717;-83
2021/03/20 08:18:15;;;;;;;5.40;4.90;;;2.90;71.20;;;;;;5067115;28;20655;-83
2021/03/20 08:20:44;;;;;;;4.90;4.40;;;3.00;72.10;;;;;;5071255;28;20207;-83
2021/03/20 08:23:42;;;;;;;5.68;4.85;;;3.00;70.20;;;;;;5069819;28;20199;-83
2021/03/20 08:26:19;;;;;;;4.38;3.95;;;3.00;70.30;;;;;;5066743;28;20195;-84
2021/03/20 08:28:51;;;;;;;6.22;5.13;;;2.90;68.10;;;;;;5069963;28;20676;-83
2021/03/20 08:31:41;;;;;;;4.53;4.10;;;2.80;68.10;;;;;;5071203;28;20200;-83
2021/03/20 08:34:19;;;;;;;4.25;3.70;;;2.60;67.60;;;;;;5070903;28;20544;-83
2021/03/20 08:37:13;;;;;;;3.15;2.90;;;2.80;67.00;;;;;;5070983;28;20204;-83
2021/03/20 08:40:06;;;;;;;4.40;3.20;;;2.90;63.90;;;;;;5071114;28;20739;-83
2021/03/20 08:42:56;;;;;;;3.50;3.20;;;3.00;64.60;;;;;;5069700;28;20246;-83
2021/03/20 08:45:30;;;;;;;3.28;2.65;;;3.10;64.80;;;;;;5071479;28;20199;-83
2021/03/20 08:48:18;;;;;;;4.68;3.63;;;2.90;64.20;;;;;;5071567;28;20202;-84
2021/03/20 08:50:57;;;;;;;3.40;3.10;;;2.60;64.40;;;;;;5067159;28;20211;-84
2021/03/20 08:53:34;;;;;;;3.40;3.10;;;2.50;64.90;;;;;;5065490;28;20275;-84
2021/03/20 08:56:09;;;;;;;4.05;3.65;;;2.50;64.60;;;;;;5070777;28;20203;-84
2021/03/20 08:58:52;;;;;;;3.83;3.50;;;2.40;64.90;;;;;;5070667;28;20198;-84
2021/03/20 09:01:27;;;;;;;4.28;3.85;;;2.40;65.50;;;;;;5069759;28;20223;-85
2021/03/20 09:04:00;;;;;;;4.88;4.30;;;2.30;64.10;;;;;;5062657;28;20221;-84
2021/03/20 09:06:32;;;;;;;4.33;3.93;;;2.30;64.30;;;;;;5055795;28;21087;-84
2021/03/20 09:09:04;;;;;;;4.13;3.20;;;2.10;67.10;;;;;;5071457;28;20695;-84
2021/03/20 09:11:41;;;;;;;4.15;3.85;;;2.50;66.50;;;;;;5070609;28;20195;-84
2021/03/20 09:14:15;;;;;;;4.43;3.72;;;3.00;64.90;;;;;;5069874;28;20222;-85
2021/03/20 09:16:48;;;;;;;3.90;3.25;;;3.10;61.20;;;;;;5071067;28;20617;-84
2021/03/20 09:19:20;;;;;;;4.60;4.10;;;3.10;60.30;;;;;;5070640;28;20774;-84
2021/03/20 09:21:48;;;;;;;5.18;2.95;;;3.10;59.70;;;;;;5070021;28;20215;-85
2021/03/20 09:24:19;;;;;;;3.60;3.05;;;3.00;59.90;;;;;;5070560;28;20714;-84
2021/03/20 09:26:47;;;;;;;3.92;3.50;;;3.10;59.40;;;;;;5070460;28;20214;-85
2021/03/20 09:29:20;;;;;;;4.00;3.30;;;3.30;59.60;;;;;;5070745;28;20603;-84
2021/03/20 09:32:12;;;;;;;5.47;4.15;;;2.60;59.70;;;;;;5069800;28;20203;-84
2021/03/20 09:34:55;;;;;;;3.65;3.35;;;1.90;59.70;;;;;;5067957;28;20229;-84
2021/03/20 09:37:59;;;;;;;3.80;3.50;;;1.70;63.40;;;;;;5070119;28;20210;-85
2021/03/20 09:40:48;;;;;;;4.13;3.03;;;2.40;63.60;;;;;;5070230;28;20690;-85
2021/03/20 09:43:37;;;;;;;5.45;4.15;;;3.00;60.30;;;;;;5069868;28;20256;-84
2021/03/20 09:46:40;;;;;;;3.97;3.20;;;2.80;58.40;;;;;;5070129;28;20577;-85
2021/03/20 09:49:40;;;;;;;12.52;4.07;;;3.70;60.20;;;;;;5059675;28;20247;-85
2021/03/20 09:52:09;;;;;;;3.55;2.80;;;3.20;58.40;;;;;;5070375;28;20199;-84
2021/03/20 09:54:43;;;;;;;3.33;3.03;;;3.50;58.30;;;;;;5069662;28;20203;-84
2021/03/20 09:57:42;;;;;;;2.90;2.70;;;4.40;58.30;;;;;;5070712;28;20211;-84
2021/03/20 10:00:35;;;;;;;5.35;3.20;;;4.10;54.40;;;;;;5069930;28;20200;-84
2021/03/20 10:03:02;;;;;;;4.45;3.13;;;3.70;55.80;;;;;;5069789;28;20235;-85
2021/03/20 10:05:31;;;;;;;3.17;2.63;;;4.00;54.10;;;;;;5069468;28;20188;-85
2021/03/20 10:08:00;;;;;;;3.65;3.35;;;4.30;53.60;;;;;;5070482;28;20203;-85
2021/03/20 10:10:48;;;;;;;3.40;3.08;;;4.50;53.20;;;;;;5070362;28;20660;-85
2021/03/20 10:13:18;;;;;;;3.13;2.88;;;4.60;52.40;;;;;;5069639;28;20214;-85
2021/03/20 10:16:00;;;;;;;4.80;2.85;;;4.70;51.70;;;;;;5071081;28;20620;-85
2021/03/20 10:18:53;;;;;;;3.25;2.95;;;4.40;50.60;;;;;;5073930;28;20604;-85
2021/03/20 10:21:24;;;;;;;3.63;3.33;;;4.80;52.10;;;;;;5073468;28;20230;-85
2021/03/20 10:23:58;;;;;;;3.00;2.78;;;5.10;51.90;;;;;;5072462;28;20199;-86
2021/03/20 10:26:30;;;;;;;3.65;3.35;;;5.00;49.30;;;;;;5073361;28;20203;-86
2021/03/20 10:28:59;;;;;;;3.53;2.95;;;5.00;51.40;;;;;;5073815;28;20211;-85
2021/03/20 10:31:28;;;;;;;3.63;2.90;;;4.90;50.60;;;;;;5075030;28;20195;-85
2021/03/20 10:34:07;;;;;;;3.63;3.28;;;5.00;50.30;;;;;;5073429;28;20207;-86
2021/03/20 10:36:37;;;;;;;4.18;3.17;;;5.00;50.50;;;;;;5073581;28;20202;-85
2021/03/20 10:39:18;;;;;;;5.13;3.20;;;4.90;50.60;;;;;;5073918;28;20200;-86
2021/03/20 10:41:45;;;;;;;3.88;2.42;;;5.00;51.10;;;;;;5074272;28;20219;-86
2021/03/20 10:44:16;;;;;;;2.97;2.60;;;4.80;48.70;;;;;;5073068;28;20548;-85
2021/03/20 10:46:43;;;;;;;2.67;2.28;;;4.70;48.40;;;;;;5073634;28;20663;-85
2021/03/20 10:49:18;;;;;;;2.80;2.58;;;4.50;49.00;;;;;;5073650;28;20206;-86
2021/03/20 10:51:48;;;;;;;2.33;2.22;;;4.40;47.70;;;;;;5074388;28;20203;-86
2021/03/20 10:54:21;;;;;;;3.80;2.55;;;4.40;47.30;;;;;;5073488;28;20200;-85
2021/03/20 10:56:49;;;;;;;3.17;2.97;;;4.40;48.50;;;;;;5074085;28;20264;-86
2021/03/20 10:59:23;;;;;;;3.50;3.10;;;4.50;48.30;;;;;;5073291;28;20198;-85
2021/03/20 11:01:50;;;;;;;3.08;2.83;;;4.20;49.20;;;;;;5072935;28;20223;-86
2021/03/20 11:04:28;;;;;;;2.95;2.67;;;3.40;51.00;;;;;;5072340;28;20595;-85
2021/03/20 11:06:56;;;;;;;3.05;2.75;;;4.00;51.60;;;;;;5072745;28;20615;-85
2021/03/20 11:09:24;;;;;;;2.88;2.47;;;4.40;47.60;;;;;;5072637;28;20207;-86
2021/03/20 11:11:59;;;;;;;4.13;3.45;;;4.60;47.20;;;;;;5072104;28;20195;-85
2021/03/20 11:14:25;;;;;;;3.53;3.10;;;4.80;47.20;;;;;;5071447;28;20206;-85
2021/03/20 11:16:57;;;;;;;2.92;2.72;;;4.70;48.30;;;;;;5071887;28;20264;-85
2021/03/20 11:19:29;;;;;;;2.67;2.47;;;4.80;48.10;;;;;;5071988;28;20226;-85
2021/03/20 11:22:00;;;;;;;3.55;3.25;;;4.70;48.40;;;;;;5071820;28;20558;-86
2021/03/20 11:24:33;;;;;;;3.03;2.72;;;4.70;48.80;;;;;;5071513;28;20297;-85
2021/03/20 11:27:14;;;;;;;3.13;2.83;;;4.70;47.50;;;;;;5071640;28;20206;-86
2021/03/20 11:29:41;;;;;;;2.65;2.45;;;4.80;46.60;;;;;;5072045;28;20218;-85
2021/03/20 11:32:23;;;;;;;3.55;2.95;;;4.80;45.20;;;;;;5071860;28;20249;-86
2021/03/20 11:35:04;;;;;;;2.50;2.40;;;4.80;46.20;;;;;;5072003;28;20266;-85
2021/03/20 11:37:31;;;;;;;3.08;2.78;;;4.60;46.50;;;;;;5071614;28;20229;-85
2021/03/20 11:40:00;;;;;;;3.13;2.90;;;4.20;47.30;;;;;;5071800;28;20457;-86
2021/03/20 11:42:35;;;;;;;2.97;2.70;;;4.40;47.60;;;;;;5071214;28;20215;-86
2021/03/20 11:45:07;;;;;;;2.95;2.50;;;4.20;47.40;;;;;;5071565;28;20297;-86
2021/03/20 11:47:36;;;;;;;4.20;3.42;;;4.30;47.30;;;;;;5071165;28;20209;-86
2021/03/20 11:50:14;;;;;;;3.95;3.55;;;4.40;48.00;;;;;;5071770;28;20214;-86
2021/03/20 11:52:49;;;;;;;4.55;3.78;;;4.60;47.50;;;;;;5070781;28;20247;-86
2021/03/20 11:55:19;;;;;;;3.40;3.15;;;4.60;49.20;;;;;;5071389;28;20333;-87
2021/03/20 11:57:46;;;;;;;5.05;2.88;;;4.30;46.90;;;;;;5071603;28;20210;-87
2021/03/20 12:00:37;;;;;;;6.18;3.30;;;4.10;48.50;;;;;;5070814;28;20210;-87
2021/03/20 12:03:09;;;;;;;4.20;3.38;;;4.30;49.90;;;;;;5071650;28;20242;-86
2021/03/20 12:05:37;;;;;;;3.67;3.38;;;4.50;50.50;;;;;;5071334;28;20577;-85
2021/03/20 12:08:21;;;;;;;4.32;3.92;;;4.30;50.60;;;;;;5071815;28;20203;-86
2021/03/20 12:10:56;;;;;;;3.42;2.63;;;4.60;49.90;;;;;;5072087;28;20210;-86
2021/03/20 12:13:43;;;;;;;6.13;4.80;;;4.50;48.80;;;;;;5071984;28;20220;-87
2021/03/20 12:16:31;;;;;;;4.15;3.30;;;3.80;45.20;;;;;;5072117;28;20210;-86
2021/03/20 12:19:16;;;;;;;2.80;2.60;;;4.40;48.80;;;;;;5072413;28;20261;-86
2021/03/20 12:22:00;;;;;;;3.13;2.83;;;4.80;47.80;;;;;;5072393;28;20273;-86
2021/03/20 12:24:34;;;;;;;3.63;3.33;;;5.10;49.80;;;;;;5071357;28;20730;-86
2021/03/20 12:27:27;;;;;;;4.07;3.67;;;5.10;48.40;;;;;;5071292;28;20206;-85
2021/03/20 12:29:58;;;;;;;4.40;3.10;;;4.40;46.70;;;;;;5071908;28;20195;-85
2021/03/20 12:32:33;;;;;;;5.18;3.70;;;4.70;48.80;;;;;;5071155;28;20204;-85
2021/03/20 12:35:36;;;;;;;3.42;3.13;;;4.60;48.60;;;;;;5071554;28;20644;-85
2021/03/20 12:38:16;;;;;;;5.60;3.80;;;4.60;50.60;;;;;;5071517;28;20257;-86
2021/03/20 12:40:46;;;;;;;3.70;3.28;;;4.40;50.10;;;;;;5071083;28;20563;-86
2021/03/20 12:43:21;;;;;;;4.32;3.70;;;5.10;50.80;;;;;;5070247;28;20227;-86
2021/03/20 12:45:47;;;;;;;3.97;3.40;;;5.50;49.20;;;;;;5071045;28;20202;-86
2021/03/20 12:48:16;;;;;;;4.15;3.75;;;5.70;49.10;;;;;;5070726;28;20233;-86
2021/03/20 12:50:42;;;;;;;4.30;3.90;;;5.40;49.60;;;;;;5071457;28;20191;-86
2021/03/20 12:53:10;;;;;;;4.03;3.72;;;5.70;49.80;;;;;;5050688;28;20196;-85
2021/03/20 12:55:36;;;;;;;6.10;3.85;;;5.60;49.70;;;;;;5051505;28;20238;-86
2021/03/20 12:58:03;;;;;;;4.80;4.00;;;5.50;49.80;;;;;;5051266;28;20200;-85
2021/03/20 13:00:31;;;;;;;3.88;3.50;;;5.40;50.50;;;;;;5066687;28;20211;-86
2021/03/20 13:02:59;;;;;;;3.90;3.50;;;5.40;49.10;;;;;;5070504;28;20234;-85
2021/03/20 13:05:28;;;;;;;3.88;3.47;;;4.80;48.10;;;;;;5064011;28;20196;-86
2021/03/20 13:07:54;;;;;;;6.35;3.85;;;4.70;49.00;;;;;;5050716;28;20200;-86
2021/03/20 13:10:22;;;;;;;6.93;4.00;;;4.30;48.30;;;;;;5050895;28;20210;-85
2021/03/20 13:12:48;;;;;;;4.63;4.22;;;4.80;50.20;;;;;;5050321;28;20206;-86
2021/03/20 13:15:17;;;;;;;4.20;3.80;;;5.20;48.60;;;;;;5055287;28;20660;-85
2021/03/20 13:17:43;;;;;;;4.45;3.50;;;5.40;47.90;;;;;;5071249;28;20712;-86
2021/03/20 13:20:11;;;;;;;3.55;3.25;;;5.90;48.10;;;;;;5071191;28;20226;-86
2021/03/20 13:22:38;;;;;;;3.53;3.22;;;6.20;47.40;;;;;;5070241;28;20264;-85
2021/03/20 13:25:05;;;;;;;3.67;3.33;;;6.30;49.00;;;;;;5070618;28;20203;-85
2021/03/20 13:27:33;;;;;;;5.93;3.70;;;5.90;48.30;;;;;;5071406;28;20218;-85
2021/03/20 13:30:00;;;;;;;4.65;4.05;;;5.90;49.30;;;;;;5071231;28;20245;-85
2021/03/20 13:32:27;;;;;;;5.20;4.35;;;5.80;49.20;;;;;;5070008;28;20244;-85